sensor_id;sensor_type;location;lat;lon;timestamp;temperature;humidity
76172;DHT22;64929;51.178;4.138;2023-04-25T00:02:10;11.00;73.70
76172;DHT22;64929;51.178;4.138;2023-04-25T00:04:36;11.00;73.60
76172;DHT22;64929;51.178;4.138;2023-04-25T00:07:03;11.00;73.50
76172;DHT22;64929;51.178;4.138;2023-04-25T00:09:29;11.00;73.60
76172;DHT22;64929;51.178;4.138;2023-04-25T00:11:55;10.90;74.00
76172;DHT22;64929;51.178;4.138;2023-04-25T00:14:20;10.90;74.10
76172;DHT22;64929;51.178;4.138;2023-04-25T00:16:47;10.70;74.60
76172;DHT22;64929;51.178;4.138;2023-04-25T00:19:13;10.70;74.40
76172;DHT22;64929;51.178;4.138;2023-04-25T00:21:39;10.80;74.20
76172;DHT22;64929;51.178;4.138;2023-04-25T00:24:06;10.70;74.80
76172;DHT22;64929;51.178;4.138;2023-04-25T00:26:34;10.60;75.10
76172;DHT22;64929;51.178;4.138;2023-04-25T00:29:00;10.60;75.30
76172;DHT22;64929;51.178;4.138;2023-04-25T00:31:26;10.70;75.10
76172;DHT22;64929;51.178;4.138;2023-04-25T00:33:52;10.50;76.40
76172;DHT22;64929;51.178;4.138;2023-04-25T00:36:18;10.70;75.50
76172;DHT22;64929;51.178;4.138;2023-04-25T00:38:44;10.60;75.20
76172;DHT22;64929;51.178;4.138;2023-04-25T00:41:10;10.50;76.60
76172;DHT22;64929;51.178;4.138;2023-04-25T00:43:36;10.50;76.40
76172;DHT22;64929;51.178;4.138;2023-04-25T00:46:02;10.40;77.00
76172;DHT22;64929;51.178;4.138;2023-04-25T00:48:28;10.30;76.90
76172;DHT22;64929;51.178;4.138;2023-04-25T00:50:59;10.40;76.60
76172;DHT22;64929;51.178;4.138;2023-04-25T00:53:27;10.30;77.20
76172;DHT22;64929;51.178;4.138;2023-04-25T00:55:53;10.20;77.20
76172;DHT22;64929;51.178;4.138;2023-04-25T00:58:20;10.30;76.50
76172;DHT22;64929;51.178;4.138;2023-04-25T01:00:47;10.40;76.50
76172;DHT22;64929;51.178;4.138;2023-04-25T01:03:14;10.50;75.70
76172;DHT22;64929;51.178;4.138;2023-04-25T01:05:43;10.20;77.30
76172;DHT22;64929;51.178;4.138;2023-04-25T01:08:09;10.10;77.90
76172;DHT22;64929;51.178;4.138;2023-04-25T01:10:36;10.20;78.30
76172;DHT22;64929;51.178;4.138;2023-04-25T01:13:02;10.10;78.00
76172;DHT22;64929;51.178;4.138;2023-04-25T01:15:28;10.20;77.10
76172;DHT22;64929;51.178;4.138;2023-04-25T01:17:54;10.20;77.50
76172;DHT22;64929;51.178;4.138;2023-04-25T01:20:23;10.20;77.00
76172;DHT22;64929;51.178;4.138;2023-04-25T01:22:50;10.30;77.80
76172;DHT22;64929;51.178;4.138;2023-04-25T01:25:17;10.30;77.40
76172;DHT22;64929;51.178;4.138;2023-04-25T01:27:44;10.40;76.80
76172;DHT22;64929;51.178;4.138;2023-04-25T01:30:10;10.40;77.20
76172;DHT22;64929;51.178;4.138;2023-04-25T01:32:36;10.30;77.60
76172;DHT22;64929;51.178;4.138;2023-04-25T01:35:06;10.30;78.00
76172;DHT22;64929;51.178;4.138;2023-04-25T01:37:44;10.20;78.10
76172;DHT22;64929;51.178;4.138;2023-04-25T01:40:11;10.30;77.40
76172;DHT22;64929;51.178;4.138;2023-04-25T01:42:40;10.20;77.50
76172;DHT22;64929;51.178;4.138;2023-04-25T01:45:06;10.20;77.70
76172;DHT22;64929;51.178;4.138;2023-04-25T01:47:33;10.20;76.80
76172;DHT22;64929;51.178;4.138;2023-04-25T01:50:01;10.30;76.80
76172;DHT22;64929;51.178;4.138;2023-04-25T01:52:27;10.10;76.10
76172;DHT22;64929;51.178;4.138;2023-04-25T01:54:53;10.10;76.30
76172;DHT22;64929;51.178;4.138;2023-04-25T01:57:18;10.30;75.30
76172;DHT22;64929;51.178;4.138;2023-04-25T01:59:45;10.30;74.80
76172;DHT22;64929;51.178;4.138;2023-04-25T02:02:11;10.30;75.60
76172;DHT22;64929;51.178;4.138;2023-04-25T02:04:37;10.40;75.00
76172;DHT22;64929;51.178;4.138;2023-04-25T02:07:03;10.10;76.40
76172;DHT22;64929;51.178;4.138;2023-04-25T02:09:29;10.20;75.90
76172;DHT22;64929;51.178;4.138;2023-04-25T02:11:55;10.30;75.80
76172;DHT22;64929;51.178;4.138;2023-04-25T02:14:21;10.30;74.60
76172;DHT22;64929;51.178;4.138;2023-04-25T02:16:47;10.20;75.10
76172;DHT22;64929;51.178;4.138;2023-04-25T02:19:12;10.20;76.30
76172;DHT22;64929;51.178;4.138;2023-04-25T02:21:38;10.10;76.30
76172;DHT22;64929;51.178;4.138;2023-04-25T02:24:04;10.10;77.00
76172;DHT22;64929;51.178;4.138;2023-04-25T02:26:30;10.10;77.60
76172;DHT22;64929;51.178;4.138;2023-04-25T02:28:56;10.20;77.10
76172;DHT22;64929;51.178;4.138;2023-04-25T02:31:22;10.10;76.90
76172;DHT22;64929;51.178;4.138;2023-04-25T02:33:48;10.00;78.20
76172;DHT22;64929;51.178;4.138;2023-04-25T02:36:14;10.00;77.10
76172;DHT22;64929;51.178;4.138;2023-04-25T02:38:40;10.10;77.30
76172;DHT22;64929;51.178;4.138;2023-04-25T02:41:06;10.10;77.70
76172;DHT22;64929;51.178;4.138;2023-04-25T02:43:32;10.20;77.30
76172;DHT22;64929;51.178;4.138;2023-04-25T02:45:57;10.10;76.70
76172;DHT22;64929;51.178;4.138;2023-04-25T02:48:23;10.20;76.70
76172;DHT22;64929;51.178;4.138;2023-04-25T02:50:49;10.20;76.80
76172;DHT22;64929;51.178;4.138;2023-04-25T02:53:14;10.20;77.10
76172;DHT22;64929;51.178;4.138;2023-04-25T02:55:40;10.20;77.70
76172;DHT22;64929;51.178;4.138;2023-04-25T02:58:06;10.20;78.90
76172;DHT22;64929;51.178;4.138;2023-04-25T03:00:32;10.00;79.40
76172;DHT22;64929;51.178;4.138;2023-04-25T03:02:57;10.00;78.90
76172;DHT22;64929;51.178;4.138;2023-04-25T03:05:23;10.10;78.60
76172;DHT22;64929;51.178;4.138;2023-04-25T03:07:49;10.10;78.00
76172;DHT22;64929;51.178;4.138;2023-04-25T03:10:14;10.20;77.70
76172;DHT22;64929;51.178;4.138;2023-04-25T03:12:40;10.00;77.80
76172;DHT22;64929;51.178;4.138;2023-04-25T03:15:06;10.10;77.60
76172;DHT22;64929;51.178;4.138;2023-04-25T03:17:32;10.10;78.70
76172;DHT22;64929;51.178;4.138;2023-04-25T03:19:57;10.20;77.90
76172;DHT22;64929;51.178;4.138;2023-04-25T03:22:23;10.10;77.40
76172;DHT22;64929;51.178;4.138;2023-04-25T03:24:50;10.10;77.20
76172;DHT22;64929;51.178;4.138;2023-04-25T03:27:16;10.00;77.30
76172;DHT22;64929;51.178;4.138;2023-04-25T03:29:42;10.00;77.70
76172;DHT22;64929;51.178;4.138;2023-04-25T03:32:07;9.70;77.80
76172;DHT22;64929;51.178;4.138;2023-04-25T03:34:33;9.70;77.30
76172;DHT22;64929;51.178;4.138;2023-04-25T03:36:59;9.50;73.70
76172;DHT22;64929;51.178;4.138;2023-04-25T03:39:25;9.30;74.70
76172;DHT22;64929;51.178;4.138;2023-04-25T03:41:51;9.30;75.80
76172;DHT22;64929;51.178;4.138;2023-04-25T03:44:17;9.40;74.80
76172;DHT22;64929;51.178;4.138;2023-04-25T03:46:42;9.40;73.90
76172;DHT22;64929;51.178;4.138;2023-04-25T03:49:08;9.40;74.30
76172;DHT22;64929;51.178;4.138;2023-04-25T03:51:34;9.30;74.30
76172;DHT22;64929;51.178;4.138;2023-04-25T03:53:59;9.50;74.10
76172;DHT22;64929;51.178;4.138;2023-04-25T03:56:25;9.20;74.30
76172;DHT22;64929;51.178;4.138;2023-04-25T03:58:51;9.10;74.60
76172;DHT22;64929;51.178;4.138;2023-04-25T04:01:16;9.20;74.40
76172;DHT22;64929;51.178;4.138;2023-04-25T04:03:42;9.20;74.20
76172;DHT22;64929;51.178;4.138;2023-04-25T04:06:08;9.30;74.10
76172;DHT22;64929;51.178;4.138;2023-04-25T04:08:34;9.30;72.80
76172;DHT22;64929;51.178;4.138;2023-04-25T04:11:00;9.30;72.30
76172;DHT22;64929;51.178;4.138;2023-04-25T04:13:27;9.50;72.00
76172;DHT22;64929;51.178;4.138;2023-04-25T04:15:53;9.50;71.60
76172;DHT22;64929;51.178;4.138;2023-04-25T04:18:19;9.50;71.80
76172;DHT22;64929;51.178;4.138;2023-04-25T04:20:45;9.60;71.90
76172;DHT22;64929;51.178;4.138;2023-04-25T04:23:11;9.70;72.20
76172;DHT22;64929;51.178;4.138;2023-04-25T04:25:37;9.70;71.50
76172;DHT22;64929;51.178;4.138;2023-04-25T04:28:03;9.70;71.40
76172;DHT22;64929;51.178;4.138;2023-04-25T04:30:29;9.70;72.00
76172;DHT22;64929;51.178;4.138;2023-04-25T04:32:55;9.60;71.70
76172;DHT22;64929;51.178;4.138;2023-04-25T04:35:22;9.60;72.20
76172;DHT22;64929;51.178;4.138;2023-04-25T04:37:47;9.60;71.70
76172;DHT22;64929;51.178;4.138;2023-04-25T04:40:14;9.70;71.50
76172;DHT22;64929;51.178;4.138;2023-04-25T04:42:43;9.70;71.70
76172;DHT22;64929;51.178;4.138;2023-04-25T04:45:11;9.70;72.20
76172;DHT22;64929;51.178;4.138;2023-04-25T04:47:38;9.50;71.50
76172;DHT22;64929;51.178;4.138;2023-04-25T04:50:08;9.60;72.80
76172;DHT22;64929;51.178;4.138;2023-04-25T04:52:39;9.60;71.90
76172;DHT22;64929;51.178;4.138;2023-04-25T04:55:05;9.60;72.70
76172;DHT22;64929;51.178;4.138;2023-04-25T04:57:31;9.60;72.20
76172;DHT22;64929;51.178;4.138;2023-04-25T04:59:58;9.70;71.80
76172;DHT22;64929;51.178;4.138;2023-04-25T05:02:24;9.70;72.20
76172;DHT22;64929;51.178;4.138;2023-04-25T05:04:51;9.30;73.00
76172;DHT22;64929;51.178;4.138;2023-04-25T05:07:17;9.30;73.70
76172;DHT22;64929;51.178;4.138;2023-04-25T05:09:43;9.40;73.50
76172;DHT22;64929;51.178;4.138;2023-04-25T05:12:09;9.40;73.60
76172;DHT22;64929;51.178;4.138;2023-04-25T05:14:34;9.40;73.60
76172;DHT22;64929;51.178;4.138;2023-04-25T05:17:00;9.40;73.60
76172;DHT22;64929;51.178;4.138;2023-04-25T05:19:26;9.30;74.00
76172;DHT22;64929;51.178;4.138;2023-04-25T05:21:52;9.30;74.40
76172;DHT22;64929;51.178;4.138;2023-04-25T05:24:18;9.20;73.80
76172;DHT22;64929;51.178;4.138;2023-04-25T05:26:43;9.30;73.80
76172;DHT22;64929;51.178;4.138;2023-04-25T05:29:09;9.30;73.70
76172;DHT22;64929;51.178;4.138;2023-04-25T05:31:36;9.60;73.40
76172;DHT22;64929;51.178;4.138;2023-04-25T05:34:02;9.60;73.30
76172;DHT22;64929;51.178;4.138;2023-04-25T05:36:28;9.60;73.70
76172;DHT22;64929;51.178;4.138;2023-04-25T05:38:53;9.70;73.30
76172;DHT22;64929;51.178;4.138;2023-04-25T05:41:19;9.80;72.50
76172;DHT22;64929;51.178;4.138;2023-04-25T05:43:45;10.00;71.80
76172;DHT22;64929;51.178;4.138;2023-04-25T05:46:12;10.10;71.50
76172;DHT22;64929;51.178;4.138;2023-04-25T05:48:39;10.20;71.20
76172;DHT22;64929;51.178;4.138;2023-04-25T05:51:05;10.30;70.50
76172;DHT22;64929;51.178;4.138;2023-04-25T05:53:33;10.20;71.40
76172;DHT22;64929;51.178;4.138;2023-04-25T05:56:00;10.20;70.40
76172;DHT22;64929;51.178;4.138;2023-04-25T05:58:27;10.20;71.10
76172;DHT22;64929;51.178;4.138;2023-04-25T06:00:52;10.10;70.90
76172;DHT22;64929;51.178;4.138;2023-04-25T06:03:18;9.90;71.60
76172;DHT22;64929;51.178;4.138;2023-04-25T06:05:44;9.90;71.50
76172;DHT22;64929;51.178;4.138;2023-04-25T06:08:10;10.10;71.50
76172;DHT22;64929;51.178;4.138;2023-04-25T06:10:36;10.40;71.00
76172;DHT22;64929;51.178;4.138;2023-04-25T06:13:02;10.20;70.90
76172;DHT22;64929;51.178;4.138;2023-04-25T06:15:28;10.40;70.70
76172;DHT22;64929;51.178;4.138;2023-04-25T06:17:54;10.50;69.50
76172;DHT22;64929;51.178;4.138;2023-04-25T06:20:19;10.40;70.50
76172;DHT22;64929;51.178;4.138;2023-04-25T06:22:49;10.40;70.10
76172;DHT22;64929;51.178;4.138;2023-04-25T06:25:15;10.30;70.40
76172;DHT22;64929;51.178;4.138;2023-04-25T06:27:40;10.40;70.50
76172;DHT22;64929;51.178;4.138;2023-04-25T06:30:07;10.40;69.50
76172;DHT22;64929;51.178;4.138;2023-04-25T06:32:32;10.20;70.70
76172;DHT22;64929;51.178;4.138;2023-04-25T06:35:00;10.40;69.30
76172;DHT22;64929;51.178;4.138;2023-04-25T06:37:26;10.30;69.10
76172;DHT22;64929;51.178;4.138;2023-04-25T06:39:51;10.40;68.90
76172;DHT22;64929;51.178;4.138;2023-04-25T06:42:17;10.20;69.10
76172;DHT22;64929;51.178;4.138;2023-04-25T06:44:43;10.30;69.60
76172;DHT22;64929;51.178;4.138;2023-04-25T06:47:09;10.30;69.80
76172;DHT22;64929;51.178;4.138;2023-04-25T06:49:34;10.20;68.70
76172;DHT22;64929;51.178;4.138;2023-04-25T06:52:00;10.30;69.00
76172;DHT22;64929;51.178;4.138;2023-04-25T06:54:26;10.20;69.10
76172;DHT22;64929;51.178;4.138;2023-04-25T06:56:54;10.20;68.40
76172;DHT22;64929;51.178;4.138;2023-04-25T06:59:19;10.20;68.50
76172;DHT22;64929;51.178;4.138;2023-04-25T07:01:45;10.30;67.90
76172;DHT22;64929;51.178;4.138;2023-04-25T07:04:11;10.30;67.30
76172;DHT22;64929;51.178;4.138;2023-04-25T07:06:36;10.40;67.20
76172;DHT22;64929;51.178;4.138;2023-04-25T07:09:10;10.20;68.30
76172;DHT22;64929;51.178;4.138;2023-04-25T07:11:37;10.30;67.60
76172;DHT22;64929;51.178;4.138;2023-04-25T07:14:03;10.10;67.40
76172;DHT22;64929;51.178;4.138;2023-04-25T07:16:28;10.10;68.40
76172;DHT22;64929;51.178;4.138;2023-04-25T07:18:54;10.10;68.00
76172;DHT22;64929;51.178;4.138;2023-04-25T07:21:20;10.20;68.40
76172;DHT22;64929;51.178;4.138;2023-04-25T07:23:46;10.20;68.50
76172;DHT22;64929;51.178;4.138;2023-04-25T07:26:12;10.30;67.50
76172;DHT22;64929;51.178;4.138;2023-04-25T07:28:38;10.50;66.30
76172;DHT22;64929;51.178;4.138;2023-04-25T07:31:04;10.50;65.70
76172;DHT22;64929;51.178;4.138;2023-04-25T07:33:30;10.60;66.90
76172;DHT22;64929;51.178;4.138;2023-04-25T07:35:56;10.60;66.80
76172;DHT22;64929;51.178;4.138;2023-04-25T07:38:22;10.70;64.30
76172;DHT22;64929;51.178;4.138;2023-04-25T07:40:51;10.70;63.30
76172;DHT22;64929;51.178;4.138;2023-04-25T07:43:16;11.00;63.00
76172;DHT22;64929;51.178;4.138;2023-04-25T07:45:46;11.20;62.70
76172;DHT22;64929;51.178;4.138;2023-04-25T07:48:17;11.30;60.70
76172;DHT22;64929;51.178;4.138;2023-04-25T07:50:44;11.20;61.90
76172;DHT22;64929;51.178;4.138;2023-04-25T07:53:09;11.20;61.90
76172;DHT22;64929;51.178;4.138;2023-04-25T07:55:35;11.30;61.10
76172;DHT22;64929;51.178;4.138;2023-04-25T07:58:02;11.30;60.90
76172;DHT22;64929;51.178;4.138;2023-04-25T08:00:28;11.00;62.00
76172;DHT22;64929;51.178;4.138;2023-04-25T08:02:54;10.90;62.70
76172;DHT22;64929;51.178;4.138;2023-04-25T08:05:20;10.80;64.70
76172;DHT22;64929;51.178;4.138;2023-04-25T08:07:46;10.70;65.60
76172;DHT22;64929;51.178;4.138;2023-04-25T08:10:11;10.60;66.40
76172;DHT22;64929;51.178;4.138;2023-04-25T08:12:37;10.40;68.30
76172;DHT22;64929;51.178;4.138;2023-04-25T08:15:04;10.30;69.20
76172;DHT22;64929;51.178;4.138;2023-04-25T08:17:30;10.30;69.70
76172;DHT22;64929;51.178;4.138;2023-04-25T08:19:56;10.20;70.40
76172;DHT22;64929;51.178;4.138;2023-04-25T08:22:22;10.20;71.70
76172;DHT22;64929;51.178;4.138;2023-04-25T08:24:48;10.20;72.80
76172;DHT22;64929;51.178;4.138;2023-04-25T08:27:13;10.00;70.70
76172;DHT22;64929;51.178;4.138;2023-04-25T08:29:39;9.80;70.70
76172;DHT22;64929;51.178;4.138;2023-04-25T08:32:05;9.60;71.10
76172;DHT22;64929;51.178;4.138;2023-04-25T08:34:30;9.70;69.50
76172;DHT22;64929;51.178;4.138;2023-04-25T08:36:56;10.10;69.70
76172;DHT22;64929;51.178;4.138;2023-04-25T08:39:22;10.30;69.10
76172;DHT22;64929;51.178;4.138;2023-04-25T08:41:47;10.70;68.40
76172;DHT22;64929;51.178;4.138;2023-04-25T08:44:14;10.80;67.80
76172;DHT22;64929;51.178;4.138;2023-04-25T08:46:41;10.90;68.10
76172;DHT22;64929;51.178;4.138;2023-04-25T08:49:08;11.00;66.40
76172;DHT22;64929;51.178;4.138;2023-04-25T08:51:36;11.30;66.20
76172;DHT22;64929;51.178;4.138;2023-04-25T08:54:10;11.20;65.80
76172;DHT22;64929;51.178;4.138;2023-04-25T08:56:39;11.20;65.60
76172;DHT22;64929;51.178;4.138;2023-04-25T08:59:06;11.30;66.30
76172;DHT22;64929;51.178;4.138;2023-04-25T09:01:34;11.40;63.70
76172;DHT22;64929;51.178;4.138;2023-04-25T09:04:01;11.50;62.90
76172;DHT22;64929;51.178;4.138;2023-04-25T09:06:30;11.70;61.20
76172;DHT22;64929;51.178;4.138;2023-04-25T09:09:04;11.80;61.40
76172;DHT22;64929;51.178;4.138;2023-04-25T09:11:34;11.60;63.30
76172;DHT22;64929;51.178;4.138;2023-04-25T09:14:30;11.50;60.50
76172;DHT22;64929;51.178;4.138;2023-04-25T09:19:26;11.40;61.70
76172;DHT22;64929;51.178;4.138;2023-04-25T09:21:57;11.40;60.70
76172;DHT22;64929;51.178;4.138;2023-04-25T09:24:43;11.60;60.30
76172;DHT22;64929;51.178;4.138;2023-04-25T09:27:12;11.60;60.00
76172;DHT22;64929;51.178;4.138;2023-04-25T09:29:42;11.70;57.90
76172;DHT22;64929;51.178;4.138;2023-04-25T09:32:34;11.90;57.80
76172;DHT22;64929;51.178;4.138;2023-04-25T09:35:00;12.10;59.00
76172;DHT22;64929;51.178;4.138;2023-04-25T09:37:27;12.20;59.20
76172;DHT22;64929;51.178;4.138;2023-04-25T09:39:55;12.00;58.40
76172;DHT22;64929;51.178;4.138;2023-04-25T09:42:25;11.90;59.90
76172;DHT22;64929;51.178;4.138;2023-04-25T09:44:53;11.50;63.60
76172;DHT22;64929;51.178;4.138;2023-04-25T09:47:19;11.40;67.20
76172;DHT22;64929;51.178;4.138;2023-04-25T09:49:48;11.00;68.50
76172;DHT22;64929;51.178;4.138;2023-04-25T09:52:17;10.70;68.80
76172;DHT22;64929;51.178;4.138;2023-04-25T09:54:48;10.70;70.60
76172;DHT22;64929;51.178;4.138;2023-04-25T09:57:20;10.50;69.80
76172;DHT22;64929;51.178;4.138;2023-04-25T09:59:48;10.50;68.80
76172;DHT22;64929;51.178;4.138;2023-04-25T10:02:18;10.60;68.80
76172;DHT22;64929;51.178;4.138;2023-04-25T10:04:48;10.40;68.40
76172;DHT22;64929;51.178;4.138;2023-04-25T10:07:14;10.50;68.00
76172;DHT22;64929;51.178;4.138;2023-04-25T10:09:41;10.60;66.10
76172;DHT22;64929;51.178;4.138;2023-04-25T10:12:08;10.30;66.90
76172;DHT22;64929;51.178;4.138;2023-04-25T10:14:34;10.50;66.70
76172;DHT22;64929;51.178;4.138;2023-04-25T10:17:01;10.60;66.70
76172;DHT22;64929;51.178;4.138;2023-04-25T10:19:28;10.80;65.30
76172;DHT22;64929;51.178;4.138;2023-04-25T10:24:48;11.20;64.30
76172;DHT22;64929;51.178;4.138;2023-04-25T10:27:15;11.30;59.70
76172;DHT22;64929;51.178;4.138;2023-04-25T10:29:41;11.40;60.50
76172;DHT22;64929;51.178;4.138;2023-04-25T10:32:08;11.50;59.70
76172;DHT22;64929;51.178;4.138;2023-04-25T10:34:44;11.90;61.10
76172;DHT22;64929;51.178;4.138;2023-04-25T10:37:12;12.00;59.90
76172;DHT22;64929;51.178;4.138;2023-04-25T10:39:40;12.10;57.80
76172;DHT22;64929;51.178;4.138;2023-04-25T10:42:07;12.20;59.10
76172;DHT22;64929;51.178;4.138;2023-04-25T10:44:37;12.20;58.70
76172;DHT22;64929;51.178;4.138;2023-04-25T10:47:06;12.10;56.90
76172;DHT22;64929;51.178;4.138;2023-04-25T10:49:42;12.30;58.40
76172;DHT22;64929;51.178;4.138;2023-04-25T10:52:17;12.30;54.80
76172;DHT22;64929;51.178;4.138;2023-04-25T10:54:57;12.40;53.50
76172;DHT22;64929;51.178;4.138;2023-04-25T10:57:27;12.10;54.10
76172;DHT22;64929;51.178;4.138;2023-04-25T10:59:58;12.10;52.80
76172;DHT22;64929;51.178;4.138;2023-04-25T11:02:26;12.40;53.00
76172;DHT22;64929;51.178;4.138;2023-04-25T11:04:53;12.50;52.10
76172;DHT22;64929;51.178;4.138;2023-04-25T11:09:57;12.80;52.60
76172;DHT22;64929;51.178;4.138;2023-04-25T11:12:24;12.90;52.00
76172;DHT22;64929;51.178;4.138;2023-04-25T11:14:50;12.70;51.90
76172;DHT22;64929;51.178;4.138;2023-04-25T11:17:16;12.50;50.60
76172;DHT22;64929;51.178;4.138;2023-04-25T11:19:41;12.50;51.10
76172;DHT22;64929;51.178;4.138;2023-04-25T11:22:07;12.90;51.30
76172;DHT22;64929;51.178;4.138;2023-04-25T11:24:34;13.10;49.80
76172;DHT22;64929;51.178;4.138;2023-04-25T11:27:04;13.20;49.60
76172;DHT22;64929;51.178;4.138;2023-04-25T11:29:32;13.10;50.20
76172;DHT22;64929;51.178;4.138;2023-04-25T11:31:58;13.00;51.90
76172;DHT22;64929;51.178;4.138;2023-04-25T11:34:25;13.10;54.20
76172;DHT22;64929;51.178;4.138;2023-04-25T11:36:52;12.70;55.30
76172;DHT22;64929;51.178;4.138;2023-04-25T11:39:19;12.60;55.00
76172;DHT22;64929;51.178;4.138;2023-04-25T11:41:46;12.30;55.00
76172;DHT22;64929;51.178;4.138;2023-04-25T11:44:12;12.20;55.30
76172;DHT22;64929;51.178;4.138;2023-04-25T11:46:40;12.20;54.20
76172;DHT22;64929;51.178;4.138;2023-04-25T11:49:06;12.30;53.30
76172;DHT22;64929;51.178;4.138;2023-04-25T11:54:06;13.00;50.80
76172;DHT22;64929;51.178;4.138;2023-04-25T11:56:32;13.00;49.00
76172;DHT22;64929;51.178;4.138;2023-04-25T11:59:03;13.10;50.70
76172;DHT22;64929;51.178;4.138;2023-04-25T12:01:33;13.00;48.20
76172;DHT22;64929;51.178;4.138;2023-04-25T12:04:10;13.00;50.00
76172;DHT22;64929;51.178;4.138;2023-04-25T12:06:38;13.10;50.20
76172;DHT22;64929;51.178;4.138;2023-04-25T12:09:07;13.20;50.50
76172;DHT22;64929;51.178;4.138;2023-04-25T12:11:56;13.30;49.40
76172;DHT22;64929;51.178;4.138;2023-04-25T12:14:28;13.60;51.50
76172;DHT22;64929;51.178;4.138;2023-04-25T12:16:56;13.60;51.00
76172;DHT22;64929;51.178;4.138;2023-04-25T12:19:23;13.90;48.20
76172;DHT22;64929;51.178;4.138;2023-04-25T12:21:49;13.80;49.20
76172;DHT22;64929;51.178;4.138;2023-04-25T12:24:18;13.70;47.80
76172;DHT22;64929;51.178;4.138;2023-04-25T12:26:52;13.60;49.60
76172;DHT22;64929;51.178;4.138;2023-04-25T12:29:23;13.50;51.00
76172;DHT22;64929;51.178;4.138;2023-04-25T12:31:51;13.20;51.70
76172;DHT22;64929;51.178;4.138;2023-04-25T12:34:18;13.00;52.30
76172;DHT22;64929;51.178;4.138;2023-04-25T12:36:44;12.80;53.50
76172;DHT22;64929;51.178;4.138;2023-04-25T12:39:17;12.60;54.50
76172;DHT22;64929;51.178;4.138;2023-04-25T12:41:44;12.50;52.70
76172;DHT22;64929;51.178;4.138;2023-04-25T12:44:11;12.50;52.30
76172;DHT22;64929;51.178;4.138;2023-04-25T12:46:37;12.70;53.20
76172;DHT22;64929;51.178;4.138;2023-04-25T12:49:04;13.00;52.30
76172;DHT22;64929;51.178;4.138;2023-04-25T12:51:31;13.20;50.50
76172;DHT22;64929;51.178;4.138;2023-04-25T12:54:01;13.30;50.50
76172;DHT22;64929;51.178;4.138;2023-04-25T12:56:28;13.30;48.80
76172;DHT22;64929;51.178;4.138;2023-04-25T12:58:54;13.10;49.90
76172;DHT22;64929;51.178;4.138;2023-04-25T13:01:20;13.30;50.70
76172;DHT22;64929;51.178;4.138;2023-04-25T13:03:46;13.50;50.40
76172;DHT22;64929;51.178;4.138;2023-04-25T13:06:13;13.20;50.60
76172;DHT22;64929;51.178;4.138;2023-04-25T13:08:38;13.20;50.40
76172;DHT22;64929;51.178;4.138;2023-04-25T13:11:05;13.50;50.20
76172;DHT22;64929;51.178;4.138;2023-04-25T13:13:31;13.30;49.30
76172;DHT22;64929;51.178;4.138;2023-04-25T13:15:58;13.30;49.60
76172;DHT22;64929;51.178;4.138;2023-04-25T13:18:23;13.50;49.50
76172;DHT22;64929;51.178;4.138;2023-04-25T13:20:53;13.50;51.60
76172;DHT22;64929;51.178;4.138;2023-04-25T13:23:19;13.40;51.00
76172;DHT22;64929;51.178;4.138;2023-04-25T13:25:46;13.30;51.90
76172;DHT22;64929;51.178;4.138;2023-04-25T13:28:12;13.30;52.60
76172;DHT22;64929;51.178;4.138;2023-04-25T13:30:38;13.40;51.70
76172;DHT22;64929;51.178;4.138;2023-04-25T13:33:03;13.20;50.00
76172;DHT22;64929;51.178;4.138;2023-04-25T13:35:30;13.20;50.40
76172;DHT22;64929;51.178;4.138;2023-04-25T13:37:56;13.20;51.50
76172;DHT22;64929;51.178;4.138;2023-04-25T13:40:22;13.00;51.90
76172;DHT22;64929;51.178;4.138;2023-04-25T13:42:48;13.40;52.00
76172;DHT22;64929;51.178;4.138;2023-04-25T13:45:13;13.60;48.00
76172;DHT22;64929;51.178;4.138;2023-04-25T13:47:39;13.70;50.40
76172;DHT22;64929;51.178;4.138;2023-04-25T13:50:05;13.50;49.90
76172;DHT22;64929;51.178;4.138;2023-04-25T13:52:32;13.40;50.30
76172;DHT22;64929;51.178;4.138;2023-04-25T13:54:58;13.20;49.40
76172;DHT22;64929;51.178;4.138;2023-04-25T13:57:24;13.20;49.40
76172;DHT22;64929;51.178;4.138;2023-04-25T13:59:50;13.60;50.10
76172;DHT22;64929;51.178;4.138;2023-04-25T14:02:15;14.10;48.80
76172;DHT22;64929;51.178;4.138;2023-04-25T14:04:42;14.20;47.90
76172;DHT22;64929;51.178;4.138;2023-04-25T14:07:07;14.20;48.10
76172;DHT22;64929;51.178;4.138;2023-04-25T14:09:34;14.00;47.60
76172;DHT22;64929;51.178;4.138;2023-04-25T14:11:59;13.80;47.20
76172;DHT22;64929;51.178;4.138;2023-04-25T14:14:25;13.70;49.20
76172;DHT22;64929;51.178;4.138;2023-04-25T14:16:51;13.70;49.90
76172;DHT22;64929;51.178;4.138;2023-04-25T14:19:19;13.60;49.60
76172;DHT22;64929;51.178;4.138;2023-04-25T14:21:45;13.40;49.90
76172;DHT22;64929;51.178;4.138;2023-04-25T14:24:11;13.30;50.50
76172;DHT22;64929;51.178;4.138;2023-04-25T14:26:38;14.00;48.40
76172;DHT22;64929;51.178;4.138;2023-04-25T14:29:05;15.70;46.10
76172;DHT22;64929;51.178;4.138;2023-04-25T14:31:34;16.60;43.10
76172;DHT22;64929;51.178;4.138;2023-04-25T14:33:59;15.80;43.00
76172;DHT22;64929;51.178;4.138;2023-04-25T14:36:26;15.20;43.90
76172;DHT22;64929;51.178;4.138;2023-04-25T14:38:53;15.40;44.80
76172;DHT22;64929;51.178;4.138;2023-04-25T14:41:18;15.50;44.40
76172;DHT22;64929;51.178;4.138;2023-04-25T14:43:44;16.20;43.50
76172;DHT22;64929;51.178;4.138;2023-04-25T14:46:11;17.70;39.60
76172;DHT22;64929;51.178;4.138;2023-04-25T14:48:36;19.40;36.60
76172;DHT22;64929;51.178;4.138;2023-04-25T14:51:02;20.60;35.90
76172;DHT22;64929;51.178;4.138;2023-04-25T14:53:28;21.70;33.20
76172;DHT22;64929;51.178;4.138;2023-04-25T14:55:53;22.70;31.30
76172;DHT22;64929;51.178;4.138;2023-04-25T14:58:19;24.00;29.10
76172;DHT22;64929;51.178;4.138;2023-04-25T15:00:46;23.60;29.10
76172;DHT22;64929;51.178;4.138;2023-04-25T15:03:12;23.60;30.10
76172;DHT22;64929;51.178;4.138;2023-04-25T15:05:39;24.10;29.80
76172;DHT22;64929;51.178;4.138;2023-04-25T15:08:05;25.30;27.70
76172;DHT22;64929;51.178;4.138;2023-04-25T15:10:32;24.50;27.70
76172;DHT22;64929;51.178;4.138;2023-04-25T15:12:58;24.00;28.40
76172;DHT22;64929;51.178;4.138;2023-04-25T15:15:24;23.00;29.80
76172;DHT22;64929;51.178;4.138;2023-04-25T15:17:50;21.60;29.80
76172;DHT22;64929;51.178;4.138;2023-04-25T15:20:16;20.50;31.90
76172;DHT22;64929;51.178;4.138;2023-04-25T15:22:43;20.80;32.00
76172;DHT22;64929;51.178;4.138;2023-04-25T15:25:10;21.20;32.10
76172;DHT22;64929;51.178;4.138;2023-04-25T15:27:37;21.60;31.80
76172;DHT22;64929;51.178;4.138;2023-04-25T15:30:09;21.90;31.10
76172;DHT22;64929;51.178;4.138;2023-04-25T15:32:37;20.80;32.30
76172;DHT22;64929;51.178;4.138;2023-04-25T15:35:05;20.60;33.30
76172;DHT22;64929;51.178;4.138;2023-04-25T15:37:32;20.20;32.70
76172;DHT22;64929;51.178;4.138;2023-04-25T15:40:02;19.50;34.40
76172;DHT22;64929;51.178;4.138;2023-04-25T15:42:46;19.10;34.10